sensor_id;sensor_type;location;lat;lon;timestamp;temperature;humidity
44723;DHT22;30451;48.638;10.624;2022-07-24T00:00:31;28.70;47.70
44723;DHT22;30451;48.638;10.624;2022-07-24T00:02:56;28.70;47.70
44723;DHT22;30451;48.638;10.624;2022-07-24T00:05:22;28.70;47.70
44723;DHT22;30451;48.638;10.624;2022-07-24T00:07:48;28.70;47.70
44723;DHT22;30451;48.638;10.624;2022-07-24T00:10:13;28.70;48.30
44723;DHT22;30451;48.638;10.624;2022-07-24T00:12:39;28.70;47.80
44723;DHT22;30451;48.638;10.624;2022-07-24T00:15:05;28.70;47.80
44723;DHT22;30451;48.638;10.624;2022-07-24T00:17:31;28.70;47.90
44723;DHT22;30451;48.638;10.624;2022-07-24T00:19:56;28.70;47.90
44723;DHT22;30451;48.638;10.624;2022-07-24T00:22:22;28.70;47.90
44723;DHT22;30451;48.638;10.624;2022-07-24T00:24:49;28.70;47.80
44723;DHT22;30451;48.638;10.624;2022-07-24T00:27:14;28.70;47.90
44723;DHT22;30451;48.638;10.624;2022-07-24T00:29:40;28.70;47.90
44723;DHT22;30451;48.638;10.624;2022-07-24T00:32:05;28.60;47.80
44723;DHT22;30451;48.638;10.624;2022-07-24T00:34:31;28.60;47.90
44723;DHT22;30451;48.638;10.624;2022-07-24T00:36:57;28.60;47.90
44723;DHT22;30451;48.638;10.624;2022-07-24T00:39:22;28.70;47.90
44723;DHT22;30451;48.638;10.624;2022-07-24T00:41:48;28.60;47.90
44723;DHT22;30451;48.638;10.624;2022-07-24T00:44:15;28.60;47.90
44723;DHT22;30451;48.638;10.624;2022-07-24T00:46:41;28.60;47.90
44723;DHT22;30451;48.638;10.624;2022-07-24T00:49:08;28.60;47.90
44723;DHT22;30451;48.638;10.624;2022-07-24T00:51:34;28.60;47.90
44723;DHT22;30451;48.638;10.624;2022-07-24T00:54:03;28.60;48.00
44723;DHT22;30451;48.638;10.624;2022-07-24T00:56:29;28.60;48.00
44723;DHT22;30451;48.638;10.624;2022-07-24T00:58:55;28.60;47.90
44723;DHT22;30451;48.638;10.624;2022-07-24T01:01:21;28.60;48.00
44723;DHT22;30451;48.638;10.624;2022-07-24T01:03:47;28.60;48.00
44723;DHT22;30451;48.638;10.624;2022-07-24T01:06:13;28.60;48.00
44723;DHT22;30451;48.638;10.624;2022-07-24T01:08:38;28.60;48.00
44723;DHT22;30451;48.638;10.624;2022-07-24T01:11:05;28.60;48.00
44723;DHT22;30451;48.638;10.624;2022-07-24T01:13:31;28.50;48.00
44723;DHT22;30451;48.638;10.624;2022-07-24T01:15:57;28.50;48.00
44723;DHT22;30451;48.638;10.624;2022-07-24T01:18:22;28.60;48.00
44723;DHT22;30451;48.638;10.624;2022-07-24T01:20:49;28.50;48.00
44723;DHT22;30451;48.638;10.624;2022-07-24T01:23:14;28.50;48.00
44723;DHT22;30451;48.638;10.624;2022-07-24T01:25:40;28.60;48.10
44723;DHT22;30451;48.638;10.624;2022-07-24T01:28:06;28.50;48.00
44723;DHT22;30451;48.638;10.624;2022-07-24T01:30:31;28.50;48.00
44723;DHT22;30451;48.638;10.624;2022-07-24T01:32:57;28.60;48.10
44723;DHT22;30451;48.638;10.624;2022-07-24T01:35:23;28.60;48.00
44723;DHT22;30451;48.638;10.624;2022-07-24T01:37:49;28.60;48.10
44723;DHT22;30451;48.638;10.624;2022-07-24T01:40:14;28.50;48.00
44723;DHT22;30451;48.638;10.624;2022-07-24T01:42:40;28.50;48.00
44723;DHT22;30451;48.638;10.624;2022-07-24T01:45:06;28.50;48.00
44723;DHT22;30451;48.638;10.624;2022-07-24T01:47:31;28.50;48.00
44723;DHT22;30451;48.638;10.624;2022-07-24T01:49:57;28.50;48.00
44723;DHT22;30451;48.638;10.624;2022-07-24T01:52:23;28.50;48.00
44723;DHT22;30451;48.638;10.624;2022-07-24T01:54:52;28.50;48.00
44723;DHT22;30451;48.638;10.624;2022-07-24T01:57:18;28.50;48.00
44723;DHT22;30451;48.638;10.624;2022-07-24T01:59:43;28.50;48.00
44723;DHT22;30451;48.638;10.624;2022-07-24T02:02:09;28.50;48.10
44723;DHT22;30451;48.638;10.624;2022-07-24T02:04:35;28.50;48.10
44723;DHT22;30451;48.638;10.624;2022-07-24T02:07:01;28.50;48.60
44723;DHT22;30451;48.638;10.624;2022-07-24T02:09:26;28.50;48.00
44723;DHT22;30451;48.638;10.624;2022-07-24T02:11:52;28.50;48.10
44723;DHT22;30451;48.638;10.624;2022-07-24T02:14:18;28.50;48.00
44723;DHT22;30451;48.638;10.624;2022-07-24T02:16:43;28.50;48.10
44723;DHT22;30451;48.638;10.624;2022-07-24T02:19:09;28.50;48.10
44723;DHT22;30451;48.638;10.624;2022-07-24T02:21:37;28.50;48.10
44723;DHT22;30451;48.638;10.624;2022-07-24T02:24:03;28.50;48.10
44723;DHT22;30451;48.638;10.624;2022-07-24T02:26:29;28.50;48.10
44723;DHT22;30451;48.638;10.624;2022-07-24T02:28:54;28.50;48.10
44723;DHT22;30451;48.638;10.624;2022-07-24T02:31:20;28.50;48.10
44723;DHT22;30451;48.638;10.624;2022-07-24T02:33:45;28.50;48.10
44723;DHT22;30451;48.638;10.624;2022-07-24T02:36:11;28.40;48.00
44723;DHT22;30451;48.638;10.624;2022-07-24T02:38:37;28.50;48.10
44723;DHT22;30451;48.638;10.624;2022-07-24T02:41:02;28.50;48.20
44723;DHT22;30451;48.638;10.624;2022-07-24T02:43:28;28.50;48.10
44723;DHT22;30451;48.638;10.624;2022-07-24T02:45:54;28.50;48.10
44723;DHT22;30451;48.638;10.624;2022-07-24T02:48:19;28.40;48.10
44723;DHT22;30451;48.638;10.624;2022-07-24T02:50:45;28.40;48.10
44723;DHT22;30451;48.638;10.624;2022-07-24T02:53:11;28.40;48.10
44723;DHT22;30451;48.638;10.624;2022-07-24T02:55:37;28.40;48.10
44723;DHT22;30451;48.638;10.624;2022-07-24T02:58:02;28.40;48.10
44723;DHT22;30451;48.638;10.624;2022-07-24T03:00:28;28.40;48.10
44723;DHT22;30451;48.638;10.624;2022-07-24T03:02:54;28.40;48.10
44723;DHT22;30451;48.638;10.624;2022-07-24T03:05:19;28.40;48.20
44723;DHT22;30451;48.638;10.624;2022-07-24T03:07:45;28.40;48.10
44723;DHT22;30451;48.638;10.624;2022-07-24T03:10:12;28.40;48.10
44723;DHT22;30451;48.638;10.624;2022-07-24T03:12:38;28.40;48.10
44723;DHT22;30451;48.638;10.624;2022-07-24T03:15:07;28.40;48.10
44723;DHT22;30451;48.638;10.624;2022-07-24T03:17:33;28.40;48.10
44723;DHT22;30451;48.638;10.624;2022-07-24T03:19:58;28.40;48.10
44723;DHT22;30451;48.638;10.624;2022-07-24T03:22:24;28.40;48.10
44723;DHT22;30451;48.638;10.624;2022-07-24T03:24:49;28.40;48.70
44723;DHT22;30451;48.638;10.624;2022-07-24T03:27:15;28.40;48.10
44723;DHT22;30451;48.638;10.624;2022-07-24T03:29:40;28.40;48.10
44723;DHT22;30451;48.638;10.624;2022-07-24T03:32:06;28.40;48.10
44723;DHT22;30451;48.638;10.624;2022-07-24T03:34:31;28.40;48.10
44723;DHT22;30451;48.638;10.624;2022-07-24T03:36:57;28.40;48.10
44723;DHT22;30451;48.638;10.624;2022-07-24T03:39:22;28.40;48.10
44723;DHT22;30451;48.638;10.624;2022-07-24T03:41:48;28.30;48.10
44723;DHT22;30451;48.638;10.624;2022-07-24T03:44:13;28.40;48.10
44723;DHT22;30451;48.638;10.624;2022-07-24T03:46:39;28.40;48.10
44723;DHT22;30451;48.638;10.624;2022-07-24T03:49:05;28.40;47.70
44723;DHT22;30451;48.638;10.624;2022-07-24T03:51:30;28.40;47.30
44723;DHT22;30451;48.638;10.624;2022-07-24T03:53:56;28.40;47.00
44723;DHT22;30451;48.638;10.624;2022-07-24T03:56:21;28.30;46.40
44723;DHT22;30451;48.638;10.624;2022-07-24T03:58:47;28.20;46.20
44723;DHT22;30451;48.638;10.624;2022-07-24T04:01:12;28.20;46.20
44723;DHT22;30451;48.638;10.624;2022-07-24T04:03:38;28.10;46.20
44723;DHT22;30451;48.638;10.624;2022-07-24T04:06:04;28.10;46.30
44723;DHT22;30451;48.638;10.624;2022-07-24T04:08:30;28.10;46.10
44723;DHT22;30451;48.638;10.624;2022-07-24T04:10:56;28.10;46.20
44723;DHT22;30451;48.638;10.624;2022-07-24T04:13:25;28.00;45.70
44723;DHT22;30451;48.638;10.624;2022-07-24T04:15:50;28.00;45.80
44723;DHT22;30451;48.638;10.624;2022-07-24T04:18:16;27.60;45.70
44723;DHT22;30451;48.638;10.624;2022-07-24T04:20:41;27.50;46.20
44723;DHT22;30451;48.638;10.624;2022-07-24T04:23:07;27.60;46.40
44723;DHT22;30451;48.638;10.624;2022-07-24T04:25:32;27.60;46.30
44723;DHT22;30451;48.638;10.624;2022-07-24T04:28:00;27.60;46.20
44723;DHT22;30451;48.638;10.624;2022-07-24T04:30:25;27.60;46.20
44723;DHT22;30451;48.638;10.624;2022-07-24T04:32:54;27.60;45.90
44723;DHT22;30451;48.638;10.624;2022-07-24T04:35:20;27.50;45.90
44723;DHT22;30451;48.638;10.624;2022-07-24T04:37:45;27.50;45.90
44723;DHT22;30451;48.638;10.624;2022-07-24T04:40:12;27.50;46.00
44723;DHT22;30451;48.638;10.624;2022-07-24T04:42:37;27.50;46.20
44723;DHT22;30451;48.638;10.624;2022-07-24T04:45:03;27.50;46.70
44723;DHT22;30451;48.638;10.624;2022-07-24T04:47:29;27.40;46.00
44723;DHT22;30451;48.638;10.624;2022-07-24T04:49:54;27.40;46.00
44723;DHT22;30451;48.638;10.624;2022-07-24T04:52:20;27.20;46.20
44723;DHT22;30451;48.638;10.624;2022-07-24T04:54:45;27.20;46.50
44723;DHT22;30451;48.638;10.624;2022-07-24T04:57:11;27.20;46.50
44723;DHT22;30451;48.638;10.624;2022-07-24T04:59:36;27.20;46.50
44723;DHT22;30451;48.638;10.624;2022-07-24T05:02:02;27.20;46.60
44723;DHT22;30451;48.638;10.624;2022-07-24T05:04:28;27.00;47.10
44723;DHT22;30451;48.638;10.624;2022-07-24T05:06:53;26.80;47.50
44723;DHT22;30451;48.638;10.624;2022-07-24T05:09:19;26.80;47.50
44723;DHT22;30451;48.638;10.624;2022-07-24T05:11:45;26.90;47.40
44723;DHT22;30451;48.638;10.624;2022-07-24T05:14:10;26.90;47.40
44723;DHT22;30451;48.638;10.624;2022-07-24T05:16:35;27.00;47.40
44723;DHT22;30451;48.638;10.624;2022-07-24T05:19:01;27.00;47.40
44723;DHT22;30451;48.638;10.624;2022-07-24T05:21:26;27.10;47.60
44723;DHT22;30451;48.638;10.624;2022-07-24T05:23:52;27.00;47.60
44723;DHT22;30451;48.638;10.624;2022-07-24T05:26:17;27.00;47.80
44723;DHT22;30451;48.638;10.624;2022-07-24T05:28:43;27.00;47.90
44723;DHT22;30451;48.638;10.624;2022-07-24T05:31:08;27.00;48.00
44723;DHT22;30451;48.638;10.624;2022-07-24T05:33:34;27.00;48.10
44723;DHT22;30451;48.638;10.624;2022-07-24T05:36:00;27.00;48.30
44723;DHT22;30451;48.638;10.624;2022-07-24T05:38:25;26.90;48.50
44723;DHT22;30451;48.638;10.624;2022-07-24T05:40:51;26.90;48.50
44723;DHT22;30451;48.638;10.624;2022-07-24T05:43:16;26.90;48.90
44723;DHT22;30451;48.638;10.624;2022-07-24T05:45:42;26.90;48.70
44723;DHT22;30451;48.638;10.624;2022-07-24T05:48:08;26.90;48.80
44723;DHT22;30451;48.638;10.624;2022-07-24T05:50:33;26.90;48.80
44723;DHT22;30451;48.638;10.624;2022-07-24T05:52:59;26.90;49.20
44723;DHT22;30451;48.638;10.624;2022-07-24T05:55:24;26.70;49.70
44723;DHT22;30451;48.638;10.624;2022-07-24T05:57:50;26.70;49.70
44723;DHT22;30451;48.638;10.624;2022-07-24T06:00:16;26.70;49.60
44723;DHT22;30451;48.638;10.624;2022-07-24T06:02:47;26.70;49.50
44723;DHT22;30451;48.638;10.624;2022-07-24T06:05:13;26.70;49.60
44723;DHT22;30451;48.638;10.624;2022-07-24T06:07:39;26.70;49.80
44723;DHT22;30451;48.638;10.624;2022-07-24T06:10:04;26.60;50.20
44723;DHT22;30451;48.638;10.624;2022-07-24T06:12:30;26.70;50.40
44723;DHT22;30451;48.638;10.624;2022-07-24T06:14:55;26.60;50.40
44723;DHT22;30451;48.638;10.624;2022-07-24T06:17:21;26.60;50.40
44723;DHT22;30451;48.638;10.624;2022-07-24T06:19:46;26.60;50.40
44723;DHT22;30451;48.638;10.624;2022-07-24T06:22:12;26.60;50.30
44723;DHT22;30451;48.638;10.624;2022-07-24T06:24:37;26.60;50.20
44723;DHT22;30451;48.638;10.624;2022-07-24T06:27:03;26.60;50.20
44723;DHT22;30451;48.638;10.624;2022-07-24T06:29:30;26.60;50.00
44723;DHT22;30451;48.638;10.624;2022-07-24T06:31:56;26.60;49.90
44723;DHT22;30451;48.638;10.624;2022-07-24T06:34:21;26.60;49.90
44723;DHT22;30451;48.638;10.624;2022-07-24T06:36:49;26.70;49.80
44723;DHT22;30451;48.638;10.624;2022-07-24T06:39:15;26.70;49.80
44723;DHT22;30451;48.638;10.624;2022-07-24T06:41:40;26.70;49.70
44723;DHT22;30451;48.638;10.624;2022-07-24T06:44:06;26.70;49.60
44723;DHT22;30451;48.638;10.624;2022-07-24T06:46:31;26.70;49.50
44723;DHT22;30451;48.638;10.624;2022-07-24T06:48:57;26.70;49.50
44723;DHT22;30451;48.638;10.624;2022-07-24T06:51:22;26.70;49.40
44723;DHT22;30451;48.638;10.624;2022-07-24T06:53:48;26.70;49.30
44723;DHT22;30451;48.638;10.624;2022-07-24T06:56:13;26.70;49.30
44723;DHT22;30451;48.638;10.624;2022-07-24T06:58:39;26.80;49.30
44723;DHT22;30451;48.638;10.624;2022-07-24T07:01:04;26.80;49.30
44723;DHT22;30451;48.638;10.624;2022-07-24T07:03:30;26.80;49.20
44723;DHT22;30451;48.638;10.624;2022-07-24T07:05:55;26.80;49.20
44723;DHT22;30451;48.638;10.624;2022-07-24T07:08:21;26.80;49.20
44723;DHT22;30451;48.638;10.624;2022-07-24T07:10:46;26.80;49.20
44723;DHT22;30451;48.638;10.624;2022-07-24T07:13:12;26.80;49.10
44723;DHT22;30451;48.638;10.624;2022-07-24T07:15:37;26.80;49.10
44723;DHT22;30451;48.638;10.624;2022-07-24T07:18:03;26.80;49.10
44723;DHT22;30451;48.638;10.624;2022-07-24T07:20:28;26.80;49.10
44723;DHT22;30451;48.638;10.624;2022-07-24T07:22:54;26.80;49.10
44723;DHT22;30451;48.638;10.624;2022-07-24T07:25:19;26.80;49.10
44723;DHT22;30451;48.638;10.624;2022-07-24T07:27:45;26.80;49.00
44723;DHT22;30451;48.638;10.624;2022-07-24T07:30:10;26.80;49.00
44723;DHT22;30451;48.638;10.624;2022-07-24T07:32:37;26.80;49.00
44723;DHT22;30451;48.638;10.624;2022-07-24T07:35:03;26.90;49.00
44723;DHT22;30451;48.638;10.624;2022-07-24T07:37:29;26.90;49.00
44723;DHT22;30451;48.638;10.624;2022-07-24T07:39:54;26.80;49.00
44723;DHT22;30451;48.638;10.624;2022-07-24T07:42:20;26.90;49.00
44723;DHT22;30451;48.638;10.624;2022-07-24T07:44:45;26.90;49.00
44723;DHT22;30451;48.638;10.624;2022-07-24T07:47:11;26.90;49.00
44723;DHT22;30451;48.638;10.624;2022-07-24T07:49:36;26.90;48.90
44723;DHT22;30451;48.638;10.624;2022-07-24T07:52:02;26.90;49.00
44723;DHT22;30451;48.638;10.624;2022-07-24T07:54:27;26.90;49.00
44723;DHT22;30451;48.638;10.624;2022-07-24T07:56:53;26.90;48.90
44723;DHT22;30451;48.638;10.624;2022-07-24T07:59:18;26.90;48.90
44723;DHT22;30451;48.638;10.624;2022-07-24T08:01:44;26.90;48.90
44723;DHT22;30451;48.638;10.624;2022-07-24T08:04:10;26.90;48.90
44723;DHT22;30451;48.638;10.624;2022-07-24T08:06:35;26.90;48.90
44723;DHT22;30451;48.638;10.624;2022-07-24T08:09:01;26.90;48.80
44723;DHT22;30451;48.638;10.624;2022-07-24T08:11:27;26.90;48.80
44723;DHT22;30451;48.638;10.624;2022-07-24T08:13:52;26.90;48.80
44723;DHT22;30451;48.638;10.624;2022-07-24T08:16:17;26.90;48.80
44723;DHT22;30451;48.638;10.624;2022-07-24T08:18:43;27.00;48.80
44723;DHT22;30451;48.638;10.624;2022-07-24T08:21:09;26.90;48.70
44723;DHT22;30451;48.638;10.624;2022-07-24T08:23:34;27.00;48.80
44723;DHT22;30451;48.638;10.624;2022-07-24T08:26:00;27.00;48.80
44723;DHT22;30451;48.638;10.624;2022-07-24T08:28:25;27.00;48.80
44723;DHT22;30451;48.638;10.624;2022-07-24T08:30:51;26.90;48.70
44723;DHT22;30451;48.638;10.624;2022-07-24T08:33:17;26.90;48.70
44723;DHT22;30451;48.638;10.624;2022-07-24T08:35:43;26.90;48.60
44723;DHT22;30451;48.638;10.624;2022-07-24T08:38:08;27.00;48.70
44723;DHT22;30451;48.638;10.624;2022-07-24T08:40:35;27.00;48.70
44723;DHT22;30451;48.638;10.624;2022-07-24T08:43:05;26.90;48.60
44723;DHT22;30451;48.638;10.624;2022-07-24T08:45:34;27.00;48.60
44723;DHT22;30451;48.638;10.624;2022-07-24T08:48:02;27.00;48.60
44723;DHT22;30451;48.638;10.624;2022-07-24T08:50:28;27.00;48.60
44723;DHT22;30451;48.638;10.624;2022-07-24T08:52:54;27.00;48.60
44723;DHT22;30451;48.638;10.624;2022-07-24T08:55:21;27.00;48.60
44723;DHT22;30451;48.638;10.624;2022-07-24T08:57:47;27.00;48.60
44723;DHT22;30451;48.638;10.624;2022-07-24T09:00:13;27.00;48.60
44723;DHT22;30451;48.638;10.624;2022-07-24T09:02:38;27.00;48.60
44723;DHT22;30451;48.638;10.624;2022-07-24T09:05:04;27.00;48.50
44723;DHT22;30451;48.638;10.624;2022-07-24T09:07:30;27.00;48.60
44723;DHT22;30451;48.638;10.624;2022-07-24T09:10:06;27.00;48.60
44723;DHT22;30451;48.638;10.624;2022-07-24T09:12:33;27.00;48.60
44723;DHT22;30451;48.638;10.624;2022-07-24T09:14:59;27.10;48.60
44723;DHT22;30451;48.638;10.624;2022-07-24T09:17:25;27.00;48.60
44723;DHT22;30451;48.638;10.624;2022-07-24T09:19:51;27.00;48.50
44723;DHT22;30451;48.638;10.624;2022-07-24T09:22:24;27.00;48.60
44723;DHT22;30451;48.638;10.624;2022-07-24T09:25:11;27.00;48.60
44723;DHT22;30451;48.638;10.624;2022-07-24T09:27:38;27.10;48.60
44723;DHT22;30451;48.638;10.624;2022-07-24T09:30:04;27.10;48.60
44723;DHT22;30451;48.638;10.624;2022-07-24T09:32:30;27.10;48.60
44723;DHT22;30451;48.638;10.624;2022-07-24T09:34:55;27.10;48.60
44723;DHT22;30451;48.638;10.624;2022-07-24T09:37:21;27.10;48.60
44723;DHT22;30451;48.638;10.624;2022-07-24T09:39:47;27.10;48.50
44723;DHT22;30451;48.638;10.624;2022-07-24T09:42:13;27.10;48.50
44723;DHT22;30451;48.638;10.624;2022-07-24T09:44:39;27.10;48.50
44723;DHT22;30451;48.638;10.624;2022-07-24T09:47:07;27.10;48.50
44723;DHT22;30451;48.638;10.624;2022-07-24T09:49:33;27.10;48.40
44723;DHT22;30451;48.638;10.624;2022-07-24T09:54:35;27.10;48.40
44723;DHT22;30451;48.638;10.624;2022-07-24T09:57:18;27.10;48.40
44723;DHT22;30451;48.638;10.624;2022-07-24T09:59:48;27.20;48.50
44723;DHT22;30451;48.638;10.624;2022-07-24T10:02:15;27.10;48.50
44723;DHT22;30451;48.638;10.624;2022-07-24T10:04:41;27.10;48.40
44723;DHT22;30451;48.638;10.624;2022-07-24T10:07:12;27.20;48.50
44723;DHT22;30451;48.638;10.624;2022-07-24T10:09:40;27.10;48.40
44723;DHT22;30451;48.638;10.624;2022-07-24T10:12:06;27.20;48.40
44723;DHT22;30451;48.638;10.624;2022-07-24T10:14:36;27.20;48.40
44723;DHT22;30451;48.638;10.624;2022-07-24T10:17:05;27.20;48.80
44723;DHT22;30451;48.638;10.624;2022-07-24T10:19:36;27.20;48.40
44723;DHT22;30451;48.638;10.624;2022-07-24T10:22:04;27.20;48.40
44723;DHT22;30451;48.638;10.624;2022-07-24T10:24:44;27.20;48.40
44723;DHT22;30451;48.638;10.624;2022-07-24T10:27:28;27.20;48.40
44723;DHT22;30451;48.638;10.624;2022-07-24T10:29:55;27.20;48.40
44723;DHT22;30451;48.638;10.624;2022-07-24T10:32:21;27.20;48.90
44723;DHT22;30451;48.638;10.624;2022-07-24T10:37:22;27.20;48.40
44723;DHT22;30451;48.638;10.624;2022-07-24T10:42:22;27.20;48.40
44723;DHT22;30451;48.638;10.624;2022-07-24T10:45:12;27.20;48.40
44723;DHT22;30451;48.638;10.624;2022-07-24T10:47:33;27.20;48.40
44723;DHT22;30451;48.638;10.624;2022-07-24T10:49:59;27.20;48.40
44723;DHT22;30451;48.638;10.624;2022-07-24T10:52:30;27.20;48.40
44723;DHT22;30451;48.638;10.624;2022-07-24T10:57:46;27.20;48.40
44723;DHT22;30451;48.638;10.624;2022-07-24T11:00:22;27.20;48.40
44723;DHT22;30451;48.638;10.624;2022-07-24T11:05:26;27.20;48.40
44723;DHT22;30451;48.638;10.624;2022-07-24T11:10:50;27.30;48.50
44723;DHT22;30451;48.638;10.624;2022-07-24T11:18:40;27.30;48.90
44723;DHT22;30451;48.638;10.624;2022-07-24T11:21:07;27.30;49.10
44723;DHT22;30451;48.638;10.624;2022-07-24T11:23:32;27.30;49.10
44723;DHT22;30451;48.638;10.624;2022-07-24T11:31:30;27.30;49.00
44723;DHT22;30451;48.638;10.624;2022-07-24T11:33:57;27.30;49.00
44723;DHT22;30451;48.638;10.624;2022-07-24T11:36:22;27.30;49.00
44723;DHT22;30451;48.638;10.624;2022-07-24T11:38:48;27.30;49.00
44723;DHT22;30451;48.638;10.624;2022-07-24T11:41:13;27.30;49.10
44723;DHT22;30451;48.638;10.624;2022-07-24T11:43:51;27.30;49.20
44723;DHT22;30451;48.638;10.624;2022-07-24T11:46:35;27.30;49.40
44723;DHT22;30451;48.638;10.624;2022-07-24T11:49:02;27.40;49.50
44723;DHT22;30451;48.638;10.624;2022-07-24T11:51:28;27.40;49.50
44723;DHT22;30451;48.638;10.624;2022-07-24T11:53:54;27.40;49.50
44723;DHT22;30451;48.638;10.624;2022-07-24T11:56:19;27.40;49.60
44723;DHT22;30451;48.638;10.624;2022-07-24T11:58:45;27.40;49.60
44723;DHT22;30451;48.638;10.624;2022-07-24T12:01:20;27.40;49.70
44723;DHT22;30451;48.638;10.624;2022-07-24T12:03:53;27.40;49.70
44723;DHT22;30451;48.638;10.624;2022-07-24T12:06:19;27.40;49.70
44723;DHT22;30451;48.638;10.624;2022-07-24T12:08:44;27.40;49.70
44723;DHT22;30451;48.638;10.624;2022-07-24T12:11:10;27.40;49.70
44723;DHT22;30451;48.638;10.624;2022-07-24T12:13:40;27.40;49.80
44723;DHT22;30451;48.638;10.624;2022-07-24T12:16:06;27.50;49.90
44723;DHT22;30451;48.638;10.624;2022-07-24T12:18:31;27.50;50.00
44723;DHT22;30451;48.638;10.624;2022-07-24T12:20:58;27.50;50.00
44723;DHT22;30451;48.638;10.624;2022-07-24T12:23:24;27.50;50.00
44723;DHT22;30451;48.638;10.624;2022-07-24T12:25:50;27.50;50.00
44723;DHT22;30451;48.638;10.624;2022-07-24T12:28:17;27.50;50.00
44723;DHT22;30451;48.638;10.624;2022-07-24T12:30:47;27.50;50.00
44723;DHT22;30451;48.638;10.624;2022-07-24T12:38:25;27.60;50.00
44723;DHT22;30451;48.638;10.624;2022-07-24T12:40:51;27.60;50.00
44723;DHT22;30451;48.638;10.624;2022-07-24T12:43:17;27.60;50.00
44723;DHT22;30451;48.638;10.624;2022-07-24T12:45:42;27.60;50.00
44723;DHT22;30451;48.638;10.624;2022-07-24T12:50:37;27.60;50.10
44723;DHT22;30451;48.638;10.624;2022-07-24T12:53:07;27.60;50.10
44723;DHT22;30451;48.638;10.624;2022-07-24T12:55:33;27.60;50.10
44723;DHT22;30451;48.638;10.624;2022-07-24T12:58:00;27.60;50.20
44723;DHT22;30451;48.638;10.624;2022-07-24T13:00:26;27.60;50.30
44723;DHT22;30451;48.638;10.624;2022-07-24T13:02:52;27.60;50.20
44723;DHT22;30451;48.638;10.624;2022-07-24T13:05:35;27.70;50.30
44723;DHT22;30451;48.638;10.624;2022-07-24T13:08:00;27.70;50.20
44723;DHT22;30451;48.638;10.624;2022-07-24T13:10:26;27.70;50.30
44723;DHT22;30451;48.638;10.624;2022-07-24T13:12:51;27.70;50.30
44723;DHT22;30451;48.638;10.624;2022-07-24T13:15:18;27.70;50.40
44723;DHT22;30451;48.638;10.624;2022-07-24T13:17:43;27.70;50.40
44723;DHT22;30451;48.638;10.624;2022-07-24T13:20:09;27.70;50.50
44723;DHT22;30451;48.638;10.624;2022-07-24T13:22:34;27.80;50.50
44723;DHT22;30451;48.638;10.624;2022-07-24T13:25:00;27.80;50.60
44723;DHT22;30451;48.638;10.624;2022-07-24T13:27:26;27.80;50.70
44723;DHT22;30451;48.638;10.624;2022-07-24T13:29:51;27.80;50.70
44723;DHT22;30451;48.638;10.624;2022-07-24T13:32:17;27.80;50.80
44723;DHT22;30451;48.638;10.624;2022-07-24T13:34:43;27.80;50.80
44723;DHT22;30451;48.638;10.624;2022-07-24T13:37:08;27.80;50.80
44723;DHT22;30451;48.638;10.624;2022-07-24T13:39:34;27.80;50.80
44723;DHT22;30451;48.638;10.624;2022-07-24T13:42:02;27.90;50.90
44723;DHT22;30451;48.638;10.624;2022-07-24T13:44:28;27.80;50.80
44723;DHT22;30451;48.638;10.624;2022-07-24T13:46:54;27.80;50.80
44723;DHT22;30451;48.638;10.624;2022-07-24T13:49:20;27.90;50.80
44723;DHT22;30451;48.638;10.624;2022-07-24T13:51:46;27.90;50.70
44723;DHT22;30451;48.638;10.624;2022-07-24T13:54:12;27.90;50.70
44723;DHT22;30451;48.638;10.624;2022-07-24T13:56:38;27.90;50.70
44723;DHT22;30451;48.638;10.624;2022-07-24T13:59:03;27.90;50.70
44723;DHT22;30451;48.638;10.624;2022-07-24T14:01:29;27.90;50.80
44723;DHT22;30451;48.638;10.624;2022-07-24T14:03:55;27.90;50.90
44723;DHT22;30451;48.638;10.624;2022-07-24T14:06:21;28.00;51.00
44723;DHT22;30451;48.638;10.624;2022-07-24T14:08:46;28.00;51.00
44723;DHT22;30451;48.638;10.624;2022-07-24T14:11:12;28.00;51.10
44723;DHT22;30451;48.638;10.624;2022-07-24T14:13:38;28.00;51.20
44723;DHT22;30451;48.638;10.624;2022-07-24T14:16:03;28.00;51.10
44723;DHT22;30451;48.638;10.624;2022-07-24T14:18:29;28.00;51.10
44723;DHT22;30451;48.638;10.624;2022-07-24T14:20:54;28.00;51.40
44723;DHT22;30451;48.638;10.624;2022-07-24T14:23:20;28.00;51.70
44723;DHT22;30451;48.638;10.624;2022-07-24T14:25:45;28.10;52.20
44723;DHT22;30451;48.638;10.624;2022-07-24T14:28:11;28.10;51.80
44723;DHT22;30451;48.638;10.624;2022-07-24T14:30:37;28.10;51.60
44723;DHT22;30451;48.638;10.624;2022-07-24T14:33:03;28.10;51.60
44723;DHT22;30451;48.638;10.624;2022-07-24T14:35:29;28.20;51.50
44723;DHT22;30451;48.638;10.624;2022-07-24T14:37:56;28.20;51.40
44723;DHT22;30451;48.638;10.624;2022-07-24T14:40:22;28.20;51.40
44723;DHT22;30451;48.638;10.624;2022-07-24T14:42:47;28.20;51.30
44723;DHT22;30451;48.638;10.624;2022-07-24T14:45:13;28.20;51.30
44723;DHT22;30451;48.638;10.624;2022-07-24T14:47:38;28.20;51.20
44723;DHT22;30451;48.638;10.624;2022-07-24T14:50:07;28.20;51.20
44723;DHT22;30451;48.638;10.624;2022-07-24T14:52:33;28.20;51.20
44723;DHT22;30451;48.638;10.624;2022-07-24T14:54:58;28.30;51.20
44723;DHT22;30451;48.638;10.624;2022-07-24T14:57:24;28.30;51.20
44723;DHT22;30451;48.638;10.624;2022-07-24T14:59:50;28.30;51.10
44723;DHT22;30451;48.638;10.624;2022-07-24T15:02:16;28.30;51.00
44723;DHT22;30451;48.638;10.624;2022-07-24T15:04:41;28.30;51.20
44723;DHT22;30451;48.638;10.624;2022-07-24T15:07:07;28.30;51.20
44723;DHT22;30451;48.638;10.624;2022-07-24T15:09:33;28.30;51.20
44723;DHT22;30451;48.638;10.624;2022-07-24T15:11:59;28.30;51.10
44723;DHT22;30451;48.638;10.624;2022-07-24T15:14:24;28.30;51.10
44723;DHT22;30451;48.638;10.624;2022-07-24T15:16:50;28.30;51.00
44723;DHT22;30451;48.638;10.624;2022-07-24T15:19:16;28.30;51.00
44723;DHT22;30451;48.638;10.624;2022-07-24T15:21:41;28.40;51.00
44723;DHT22;30451;48.638;10.624;2022-07-24T15:24:07;28.40;51.00
44723;DHT22;30451;48.638;10.624;2022-07-24T15:26:33;28.40;50.90
44723;DHT22;30451;48.638;10.624;2022-07-24T15:28:58;28.40;51.00
44723;DHT22;30451;48.638;10.624;2022-07-24T15:31:24;28.40;50.90
44723;DHT22;30451;48.638;10.624;2022-07-24T15:33:50;28.40;50.80
44723;DHT22;30451;48.638;10.624;2022-07-24T15:36:16;28.40;50.80
44723;DHT22;30451;48.638;10.624;2022-07-24T15:38:41;28.40;50.80
44723;DHT22;30451;48.638;10.624;2022-07-24T15:41:07;28.40;50.80
44723;DHT22;30451;48.638;10.624;2022-07-24T15:43:33;28.40;50.70